Time;durP1;ratioP1;P1;durP2;ratioP2;P2;SDS_P1;SDS_P2;PMS_P1;PMS_P2;Temp;Humidity;BMP_temperature;BMP_pressure;BME280_temperature;BME280_humidity;BME280_pressure;Samples;Min_cycle;Max_cycle;Signal;HPM_P1;HPM_P2
2023/05/30 00:01:16;;;;;;;6.95;6.10;;;;;;;18.61;100.00;101718.63;5072362;28;20032;-69
2023/05/30 00:03:44;;;;;;;6.25;5.63;;;;;;;19.00;100.00;101768.84;5072657;28;20032;-70
2023/05/30 00:06:13;;;;;;;6.70;5.85;;;;;;;18.99;100.00;101779.22;5072792;28;20479;-69
2023/05/30 00:08:40;;;;;;;6.78;6.18;;;;;;;18.91;100.00;101764.03;5051777;28;20038;-68
2023/05/30 00:11:06;;;;;;;7.65;6.05;;;;;;;18.57;100.00;101742.81;5072862;28;20077;-68
2023/05/30 00:13:32;;;;;;;8.02;6.40;;;;;;;18.87;100.00;101792.53;5054562;28;20029;-69
2023/05/30 00:15:58;;;;;;;7.05;6.35;;;;;;;18.51;100.00;101753.31;5053291;28;20533;-69
2023/05/30 00:18:24;;;;;;;7.18;6.47;;;;;;;18.66;100.00;101800.97;5054090;28;20032;-69
2023/05/30 00:20:50;;;;;;;8.65;6.60;;;;;;;18.49;100.00;101757.69;5072452;28;20411;-68
2023/05/30 00:23:16;;;;;;;8.40;6.68;;;;;;;18.54;100.00;101817.63;5071959;28;20040;-69
2023/05/30 00:25:42;;;;;;;7.22;6.53;;;;;;;18.32;100.00;101756.50;5072542;28;20031;-67
2023/05/30 00:28:07;;;;;;;8.02;6.60;;;;;;;18.73;100.00;101821.31;5054038;28;20029;-69
2023/05/30 00:30:36;;;;;;;7.20;6.38;;;;;;;18.55;100.00;101788.41;5071574;28;20513;-69
2023/05/30 00:33:02;;;;;;;8.07;6.30;;;;;;;18.69;100.00;101835.19;5071788;28;20419;-69
2023/05/30 00:35:27;;;;;;;8.32;6.18;;;;;;;18.76;100.00;101838.41;5053684;28;20060;-69
2023/05/30 00:37:52;;;;;;;8.23;6.25;;;;;;;18.48;100.00;101804.94;5071394;28;20046;-68
2023/05/30 00:40:18;;;;;;;7.28;6.55;;;;;;;18.76;100.00;101834.09;5071922;28;20119;-69
2023/05/30 00:42:43;;;;;;;8.18;7.03;;;;;;;18.31;100.00;101777.97;5071800;28;20036;-68
2023/05/30 00:45:09;;;;;;;7.65;6.93;;;;;;;18.50;100.00;101798.00;5071705;28;20028;-70
2023/05/30 00:47:35;;;;;;;7.70;6.82;;;;;;;18.30;100.00;101772.00;5053744;28;20481;-69
2023/05/30 00:50:01;;;;;;;8.32;6.95;;;;;;;18.58;100.00;101831.28;5071948;28;20442;-69
2023/05/30 00:52:27;;;;;;;8.93;6.93;;;;;;;18.68;100.00;101830.06;5071990;28;20020;-68
2023/05/30 00:54:53;;;;;;;8.32;6.60;;;;;;;18.39;100.00;101786.31;5071787;28;20024;-68
2023/05/30 00:57:20;;;;;;;7.13;6.40;;;;;;;18.69;100.00;101822.31;5071305;28;20043;-68
2023/05/30 00:59:47;;;;;;;7.78;6.72;;;;;;;18.49;100.00;101796.31;5069255;28;20132;-69
2023/05/30 01:02:13;;;;;;;7.10;6.40;;;;;;;18.52;100.00;101803.13;5071864;28;20032;-68
2023/05/30 01:04:40;;;;;;;10.23;7.32;;;;;;;18.69;100.00;101799.13;5070982;28;20037;-68
2023/05/30 01:07:07;;;;;;;7.95;6.75;;;;;;;18.91;100.00;101833.63;5071097;28;20042;-69
2023/05/30 01:09:33;;;;;;;7.25;6.60;;;;;;;18.52;100.00;101764.47;5071241;28;20498;-68
2023/05/30 01:12:23;;;;;;;8.82;7.32;;;;;;;18.93;100.00;101833.56;5070977;28;20029;-70
2023/05/30 01:15:09;;;;;;;8.52;7.05;;;;;;;18.76;100.00;101781.69;5053143;28;20509;-68
2023/05/30 01:18:12;;;;;;;7.40;6.43;;;;;;;18.87;100.00;101810.56;5071153;28;20033;-68
2023/05/30 01:20:48;;;;;;;7.05;6.35;;;;;;;18.80;100.00;101799.59;5053167;28;20035;-68
2023/05/30 01:23:32;;;;;;;8.77;6.78;;;;;;;18.85;100.00;101810.63;5070954;28;20043;-69
2023/05/30 01:26:19;;;;;;;6.95;6.25;;;;;;;18.85;100.00;101792.59;5071118;28;20028;-69
2023/05/30 01:28:48;;;;;;;8.55;6.30;;;;;;;18.75;100.00;101809.22;5069536;28;20064;-72
2023/05/30 01:31:14;;;;;;;6.30;5.65;;;;;;;18.70;100.00;101808.53;5070849;28;20024;-70
2023/05/30 01:33:42;;;;;;;7.82;6.65;;;;;;;18.39;100.00;101755.41;5071006;28;20418;-68
2023/05/30 01:36:08;;;;;;;7.28;6.30;;;;;;;18.65;100.00;101807.00;5071158;28;20036;-67
2023/05/30 01:38:34;;;;;;;6.70;5.93;;;;;;;18.66;100.00;101816.41;5070601;28;20090;-69
2023/05/30 01:41:01;;;;;;;6.38;5.78;;;;;;;18.68;100.00;101814.59;5070917;28;20031;-68
2023/05/30 01:43:44;;;;;;;9.48;6.45;;;;;;;18.74;100.00;101815.25;5070660;28;20028;-68
2023/05/30 01:46:36;;;;;;;7.97;6.00;;;;;;;18.47;100.00;101777.50;5052920;28;20076;-68
2023/05/30 01:49:29;;;;;;;7.22;6.28;;;;;;;18.84;100.00;101829.53;5070831;28;20036;-71
2023/05/30 01:52:02;;;;;;;8.00;6.07;;;;;;;18.43;100.00;101778.47;5071096;28;20116;-68
2023/05/30 01:54:30;;;;;;;6.18;5.57;;;;;;;18.37;100.00;101770.91;5070679;28;20044;-68
2023/05/30 01:57:16;;;;;;;7.40;6.25;;;;;;;18.77;100.00;101828.06;5070826;28;20032;-68
2023/05/30 01:59:43;;;;;;;7.95;6.28;;;;;;;18.44;100.00;101784.50;5067103;28;20134;-68
2023/05/30 02:02:10;;;;;;;6.95;6.07;;;;;;;18.49;100.00;101790.31;5070226;28;20144;-69
2023/05/30 02:04:35;;;;;;;6.70;6.03;;;;;;;18.42;100.00;101791.38;5070566;28;20067;-68
2023/05/30 02:07:02;;;;;;;7.53;5.43;;;;;;;18.69;100.00;101830.03;5070235;28;20108;-69
2023/05/30 02:09:28;;;;;;;6.47;5.13;;;;;;;18.74;100.00;101846.19;5070525;28;20024;-68
2023/05/30 02:11:53;;;;;;;6.97;5.15;;;;;;;18.38;100.00;101789.78;5070332;28;20058;-68
2023/05/30 02:14:19;;;;;;;6.50;5.28;;;;;;;18.76;100.00;101840.97;5070482;28;20021;-68
2023/05/30 02:16:45;;;;;;;6.82;5.20;;;;;;;18.75;100.00;101853.06;5051551;28;20041;-69
2023/05/30 02:19:12;;;;;;;8.18;4.70;;;;;;;18.57;100.00;101809.81;5055684;28;20064;-68
2023/05/30 02:21:38;;;;;;;7.53;4.95;;;;;;;18.75;100.00;101829.00;5070062;28;20028;-68
2023/05/30 02:24:03;;;;;;;5.88;4.43;;;;;;;18.72;100.00;101827.34;5070391;28;20031;-73
2023/05/30 02:26:29;;;;;;;5.97;4.70;;;;;;;18.83;100.00;101827.88;5070469;28;20069;-68
2023/05/30 02:28:55;;;;;;;6.72;4.82;;;;;;;18.82;100.00;101853.69;5069474;28;20025;-68
2023/05/30 02:31:20;;;;;;;6.05;4.40;;;;;;;18.61;100.00;101798.53;5067911;28;20031;-71
2023/05/30 02:33:46;;;;;;;5.97;4.80;;;;;;;18.44;100.00;101769.84;5048758;28;20033;-69
2023/05/30 02:36:12;;;;;;;5.18;4.25;;;;;;;18.72;100.00;101809.31;5050088;28;20419;-69
2023/05/30 02:38:37;;;;;;;5.50;4.05;;;;;;;18.72;100.00;101821.34;5032421;28;20033;-69
2023/05/30 02:41:03;;;;;;;5.25;3.60;;;;;;;18.58;100.00;101759.94;5053667;28;20052;-71
2023/05/30 02:43:28;;;;;;;5.18;3.90;;;;;;;18.49;100.00;101777.44;5053017;28;20138;-69
2023/05/30 02:45:54;;;;;;;4.90;4.13;;;;;;;18.30;100.00;101761.72;5035382;28;20036;-69
2023/05/30 02:48:20;;;;;;;4.47;4.05;;;;;;;18.29;100.00;101746.28;5053978;28;20063;-68
2023/05/30 02:50:46;;;;;;;4.53;3.88;;;;;;;18.42;100.00;101784.47;5054045;28;20029;-68
2023/05/30 02:53:11;;;;;;;5.32;4.00;;;;;;;18.81;100.00;101821.06;5035980;28;20447;-68
2023/05/30 02:55:37;;;;;;;5.78;3.50;;;;;;;18.67;100.00;101826.66;5036113;28;20086;-69
2023/05/30 02:58:03;;;;;;;8.68;3.47;;;;;;;18.37;100.00;101775.22;5035760;28;20029;-68
2023/05/30 03:00:28;;;;;;;3.97;3.50;;;;;;;18.66;100.00;101831.88;5035289;28;20408;-68
2023/05/30 03:02:54;;;;;;;3.20;2.90;;;;;;;18.81;100.00;101858.00;5053776;28;20055;-68
2023/05/30 03:05:20;;;;;;;4.55;3.40;;;;;;;18.74;100.00;101853.94;5036804;28;20040;-69
2023/05/30 03:07:46;;;;;;;4.00;3.20;;;;;;;18.62;100.00;101827.72;5060391;28;20039;-71
2023/05/30 03:10:11;;;;;;;4.80;3.42;;;;;;;18.39;100.00;101794.03;5073889;28;20024;-68
2023/05/30 03:12:37;;;;;;;4.65;3.20;;;;;;;18.63;100.00;101856.00;5073001;28;20506;-74
2023/05/30 03:15:05;;;;;;;5.38;3.60;;;;;;;18.57;100.00;101848.47;5073562;28;20056;-68
2023/05/30 03:17:30;;;;;;;3.90;3.08;;;;;;;18.61;100.00;101852.63;5050327;28;20028;-68
2023/05/30 03:20:00;;;;;;;3.00;2.80;;;;;;;18.15;100.00;101775.03;5035660;28;20021;-69
2023/05/30 03:22:25;;;;;;;3.58;2.75;;;;;;;18.25;100.00;101804.78;5061745;28;20028;-68
2023/05/30 03:24:51;;;;;;;4.00;2.63;;;;;;;18.28;100.00;101809.84;5073348;28;20406;-69
2023/05/30 03:27:16;;;;;;;3.67;2.92;;;;;;;18.64;100.00;101873.13;5072774;28;20037;-69
2023/05/30 03:29:42;;;;;;;3.33;2.85;;;;;;;18.46;100.00;101837.63;5073558;28;20077;-68
2023/05/30 03:32:08;;;;;;;3.58;2.80;;;;;;;18.10;100.00;101790.59;5067244;28;20136;-71
2023/05/30 03:34:34;;;;;;;4.80;3.20;;;;;;;18.82;100.00;101885.47;5053102;28;20120;-68
2023/05/30 03:36:59;;;;;;;4.18;3.10;;;;;;;18.71;100.00;101851.47;5035407;28;20032;-70
2023/05/30 03:39:40;;;;;;;3.13;2.83;;;;;;;18.43;100.00;101822.28;5051924;28;20036;-69
2023/05/30 03:42:06;;;;;;;4.05;2.85;;;;;;;18.77;100.00;101896.81;5068889;28;20033;-70
2023/05/30 03:44:32;;;;;;;3.30;2.97;;;;;;;18.72;100.00;101875.47;5072583;28;20399;-69
2023/05/30 03:46:57;;;;;;;5.15;2.70;;;;;;;18.74;100.00;101895.16;5073112;28;20029;-70
2023/05/30 03:49:22;;;;;;;3.22;2.85;;;;;;;18.78;100.00;101909.66;5070651;28;20106;-70
2023/05/30 03:51:48;;;;;;;2.90;2.60;;;;;;;18.59;100.00;101859.56;5053799;28;20037;-69
2023/05/30 03:54:13;;;;;;;2.70;2.50;;;;;;;18.60;100.00;101857.84;5073324;28;20119;-70
2023/05/30 03:56:39;;;;;;;2.65;2.45;;;;;;;18.78;100.00;101904.50;5073393;28;20028;-72
2023/05/30 03:59:04;;;;;;;4.25;2.40;;;;;;;18.86;100.00;101909.41;5071309;28;20036;-72
2023/05/30 04:01:30;;;;;;;4.22;2.72;;;;;;;18.83;100.00;101900.06;5072987;28;20115;-70
2023/05/30 04:03:57;;;;;;;3.25;2.47;;;;;;;18.78;100.00;101868.41;5072784;28;20502;-72
2023/05/30 04:06:24;;;;;;;3.75;2.60;;;;;;;19.10;100.00;101928.41;5072930;28;20463;-69
2023/05/30 04:08:50;;;;;;;2.97;2.40;;;;;;;19.03;100.00;101912.31;5072977;28;20035;-72
2023/05/30 04:11:15;;;;;;;2.88;2.55;;;;;;;19.07;100.00;101944.00;5054292;28;20029;-71
2023/05/30 04:13:40;;;;;;;4.18;2.67;;;;;;;19.03;100.00;101912.31;5034865;28;20087;-79
2023/05/30 04:16:06;;;;;;;4.13;2.63;;;;;;;19.06;100.00;101927.69;5052865;28;20048;-72
2023/05/30 04:18:31;;;;;;;4.47;2.33;;;;;;;19.13;100.00;101923.19;5065317;28;20525;-70
2023/05/30 04:20:57;;;;;;;5.72;2.65;;;;;;;18.67;100.00;101873.06;5071677;28;20077;-73
2023/05/30 04:23:22;;;;;;;2.45;2.25;;;;;;;18.70;100.00;101872.09;5054596;28;20146;-76
2023/05/30 04:25:48;;;;;;;2.58;2.33;;;;;;;18.75;100.00;101871.09;5054571;28;20031;-73
2023/05/30 04:28:24;;;;;;;4.72;2.22;;;;;;;19.10;100.00;101931.84;5072262;28;20025;-71
2023/05/30 04:30:49;;;;;;;2.67;2.30;;;;;;;19.31;100.00;101930.31;5058750;28;20456;-72
2023/05/30 04:33:16;;;;;;;4.43;2.22;;;;;;;18.80;100.00;101876.94;5052203;28;20032;-72
2023/05/30 04:35:43;;;;;;;2.35;1.95;;;;;;;19.09;100.00;101924.16;5069022;28;20074;-70
2023/05/30 04:38:10;;;;;;;3.85;2.35;;;;;;;19.10;100.00;101931.00;5072376;28;20028;-69
2023/05/30 04:40:42;;;;;;;4.03;2.00;;;;;;;19.05;100.00;101905.38;5035055;28;20154;-69
2023/05/30 04:43:08;;;;;;;7.15;2.63;;;;;;;18.97;100.00;101879.00;5054161;28;20036;-69
2023/05/30 04:45:38;;;;;;;4.05;2.40;;;;;;;19.43;100.00;101924.78;5071378;28;20153;-71
2023/05/30 04:48:04;;;;;;;4.47;2.22;;;;;;;19.18;100.00;101900.66;5071379;28;20116;-71
2023/05/30 04:50:30;;;;;;;4.03;2.20;;;;;;;19.25;100.00;101925.38;5053407;28;20039;-71
2023/05/30 04:52:55;;;;;;;6.10;2.35;;;;;;;19.32;100.00;101917.38;5053019;28;20024;-70
2023/05/30 04:55:23;;;;;;;4.10;2.20;;;;;;;19.33;100.00;101929.38;5070119;28;20034;-70
2023/05/30 04:57:49;;;;;;;4.28;3.10;;;;;;;19.14;100.00;101876.69;5071731;28;20475;-71
2023/05/30 05:00:14;;;;;;;3.17;2.28;;;;;;;19.32;100.00;101919.09;5071626;28;20096;-71
2023/05/30 05:02:44;;;;;;;4.40;2.40;;;;;;;19.47;100.00;101922.03;5070879;28;20028;-70
2023/05/30 05:05:09;;;;;;;3.38;2.63;;;;;;;19.51;100.00;101928.78;5071321;28;20111;-71
2023/05/30 05:07:35;;;;;;;4.88;2.70;;;;;;;19.16;100.00;101894.69;5070552;28;20112;-71
2023/05/30 05:10:01;;;;;;;5.85;3.28;;;;;;;19.14;100.00;101887.00;5071076;28;20036;-70
2023/05/30 05:12:27;;;;;;;5.30;3.35;;;;;;;19.37;100.00;101905.19;5071190;28;20085;-70
2023/05/30 05:14:54;;;;;;;6.53;4.10;;;;;;;19.49;100.00;101922.84;5070287;28;20036;-70
2023/05/30 05:17:19;;;;;;;6.00;4.00;;;;;;;19.19;100.00;101884.28;5052970;28;20035;-71
2023/05/30 05:19:45;;;;;;;4.70;3.95;;;;;;;19.48;100.00;101917.72;5053038;28;20025;-70
2023/05/30 05:22:10;;;;;;;6.13;4.28;;;;;;;19.31;100.00;101886.47;5071055;28;20558;-71
2023/05/30 05:24:36;;;;;;;6.43;4.07;;;;;;;19.21;100.00;101878.19;5070996;28;20032;-71
2023/05/30 05:27:01;;;;;;;5.28;4.32;;;;;;;19.24;100.00;101885.81;5071412;28;20028;-70
2023/05/30 05:29:26;;;;;;;9.25;4.70;;;;;;;19.18;100.00;101898.06;5070903;28;20041;-70
2023/05/30 05:31:52;;;;;;;8.15;5.05;;;;;;;19.33;100.00;101898.44;5071271;28;20028;-71
2023/05/30 05:34:17;;;;;;;7.43;4.90;;;;;;;19.38;100.00;101886.25;5070977;28;20044;-70
2023/05/30 05:36:43;;;;;;;7.03;4.97;;;;;;;19.48;100.00;101904.84;5071534;28;20116;-70
2023/05/30 05:39:08;;;;;;;6.60;4.95;;;;;;;19.45;100.00;101889.47;5070840;28;20044;-70
2023/05/30 05:41:34;;;;;;;6.38;4.90;;;;;;;19.62;100.00;101928.44;5071294;28;20055;-71
2023/05/30 05:44:00;;;;;;;5.93;3.92;;;;;;;19.45;100.00;101899.78;5052592;28;20427;-70
2023/05/30 05:46:26;;;;;;;6.53;3.42;;;;;;;19.22;100.00;101890.19;5070642;28;20114;-71
2023/05/30 05:48:52;;;;;;;4.10;3.35;;;;;;;19.45;100.00;101889.47;5070990;28;20039;-70
2023/05/30 05:51:18;;;;;;;4.57;3.22;;;;;;;19.39;100.00;101892.25;5071216;28;20028;-72
2023/05/30 05:53:43;;;;;;;5.57;3.30;;;;;;;19.29;100.00;101891.69;5052737;28;20036;-70
2023/05/30 05:56:08;;;;;;;5.43;3.22;;;;;;;19.88;100.00;101938.72;5071240;28;20576;-70
2023/05/30 05:58:34;;;;;;;3.75;3.40;;;;;;;19.78;100.00;101958.84;5070655;28;20025;-70
2023/05/30 06:01:00;;;;;;;4.15;3.10;;;;;;;19.98;100.00;101957.31;5052738;28;20097;-71
2023/05/30 06:03:25;;;;;;;7.68;3.28;;;;;;;19.79;100.00;101910.63;5052429;28;20131;-70
2023/05/30 06:05:51;;;;;;;5.88;3.50;;;;;;;19.79;100.00;101914.06;5070842;28;20021;-71
2023/05/30 06:08:16;;;;;;;5.43;3.65;;;;;;;20.09;100.00;101900.94;5070425;28;20347;-72
2023/05/30 06:10:41;;;;;;;6.68;3.78;;;;;;;20.66;100.00;101969.44;5052489;28;20028;-71
2023/05/30 06:13:07;;;;;;;5.97;3.60;;;;;;;20.70;100.00;101927.06;5070765;28;20121;-70
2023/05/30 06:15:32;;;;;;;4.72;3.97;;;;;;;20.31;100.00;101891.53;5070546;28;20586;-71
2023/05/30 06:17:58;;;;;;;7.05;4.60;;;;;;;20.63;100.00;101941.13;5070628;28;20636;-71
2023/05/30 06:20:23;;;;;;;6.25;4.28;;;;;;;20.24;100.00;101905.59;5052326;28;20035;-71
2023/05/30 06:22:48;;;;;;;5.63;4.55;;;;;;;20.42;100.00;101892.81;5070276;28;20055;-71
2023/05/30 06:25:15;;;;;;;7.57;4.65;;;;;;;20.73;100.00;101960.56;5070513;28;20486;-71
2023/05/30 06:27:40;;;;;;;7.72;5.00;;;;;;;20.79;100.00;101958.63;5070986;28;20024;-71
2023/05/30 06:30:06;;;;;;;6.82;5.38;;;;;;;20.77;100.00;101953.53;5052187;28;20550;-71
2023/05/30 06:32:31;;;;;;;9.02;5.50;;;;;;;20.89;100.00;101947.03;5070634;28;20032;-71
2023/05/30 06:34:57;;;;;;;6.43;5.15;;;;;;;20.73;100.00;101892.47;5070676;28;20407;-71
2023/05/30 06:37:24;;;;;;;6.85;4.75;;;;;;;20.85;100.00;101940.28;5070505;28;20125;-73
2023/05/30 06:39:50;;;;;;;5.82;4.50;;;;;;;20.95;100.00;101898.50;5070831;28;20135;-70
2023/05/30 06:42:15;;;;;;;5.80;4.30;;;;;;;20.99;100.00;101881.97;5070683;28;20487;-70
2023/05/30 06:44:41;;;;;;;4.63;4.13;;;;;;;21.11;100.00;101909.94;5070167;28;20559;-71
2023/05/30 06:47:06;;;;;;;7.28;4.25;;;;;;;20.79;100.00;101870.72;5052684;28;20062;-71
2023/05/30 06:49:32;;;;;;;4.07;3.63;;;;;;;20.82;100.00;101849.91;5052538;28;20024;-70
2023/05/30 06:51:57;;;;;;;5.20;3.95;;;;;;;21.11;100.00;101860.78;5069718;28;20031;-71
2023/05/30 06:54:23;;;;;;;4.47;3.78;;;;;;;20.95;100.00;101843.34;5052258;28;20120;-72
2023/05/30 06:56:48;;;;;;;4.57;4.15;;;;;;;20.90;100.00;101860.78;5070194;28;20016;-70
2023/05/30 06:59:13;;;;;;;4.93;4.00;;;;;;;20.94;100.00;101805.41;5070154;28;20453;-71
2023/05/30 07:01:39;;;;;;;6.13;4.00;;;;;;;21.13;100.00;101878.84;5069753;28;20036;-71
2023/05/30 07:04:05;;;;;;;5.45;3.67;;;;;;;21.15;100.00;101866.69;5051941;28;20112;-71
2023/05/30 07:06:30;;;;;;;8.55;4.50;;;;;;;21.37;100.00;101851.94;5069816;28;20025;-71
2023/05/30 07:08:56;;;;;;;6.65;4.47;;;;;;;21.79;100.00;101894.09;5070168;28;20032;-72
2023/05/30 07:11:22;;;;;;;6.90;4.03;;;;;;;21.67;100.00;101880.84;5070344;28;20085;-71
2023/05/30 07:13:47;;;;;;;5.55;4.00;;;;;;;21.79;100.00;101880.31;5070523;28;20487;-71
2023/05/30 07:16:13;;;;;;;4.63;3.88;;;;;;;21.73;100.00;101885.75;5070403;28;20048;-71
2023/05/30 07:18:38;;;;;;;6.38;4.20;;;;;;;21.64;100.00;101884.41;5070004;28;20079;-71
2023/05/30 07:21:04;;;;;;;6.45;4.13;;;;;;;21.34;100.00;101819.25;5069846;28;20044;-71
2023/05/30 07:23:29;;;;;;;6.00;4.30;;;;;;;22.06;100.00;101882.56;5069959;28;20058;-72
2023/05/30 07:25:54;;;;;;;7.22;4.03;;;;;;;21.63;100.00;101838.69;5053675;28;20047;-72
2023/05/30 07:28:22;;;;;;;6.25;4.43;;;;;;;22.23;100.00;101881.78;5073365;28;20021;-72
2023/05/30 07:30:47;;;;;;;5.90;4.22;;;;;;;21.88;100.00;101859.22;5055354;28;20028;-71
2023/05/30 07:33:13;;;;;;;8.82;4.60;;;;;;;22.29;100.00;101859.00;5073297;28;20600;-70
2023/05/30 07:35:38;;;;;;;5.72;3.80;;;;;;;22.78;100.00;101869.72;5054974;28;20038;-71
2023/05/30 07:38:04;;;;;;;7.10;3.97;;;;;;;22.06;100.00;101842.84;5072955;28;20063;-71
2023/05/30 07:40:29;;;;;;;5.15;3.72;;;;;;;21.86;100.00;101771.22;5073319;28;20029;-71
2023/05/30 07:42:55;;;;;;;5.63;3.60;;;;;;;22.53;100.00;101836.28;5072489;28;20457;-71
2023/05/30 07:45:20;;;;;;;7.47;3.40;;;;;;;22.82;100.00;101842.69;5073262;28;20052;-71
2023/05/30 07:47:45;;;;;;;7.57;3.97;;;;;;;22.62;100.00;101777.97;5072041;28;20029;-70
2023/05/30 07:50:11;;;;;;;4.68;3.60;;;;;;;23.02;100.00;101781.09;5073259;28;20083;-70
2023/05/30 07:52:37;;;;;;;4.78;4.15;;;;;;;22.89;100.00;101802.56;5055003;28;20028;-70
2023/05/30 07:55:02;;;;;;;5.88;4.07;;;;;;;22.36;100.00;101738.53;5055105;28;20424;-73
2023/05/30 07:57:28;;;;;;;6.20;3.85;;;;;;;22.87;100.00;101788.81;5073047;28;20063;-72
2023/05/30 07:59:53;;;;;;;7.50;4.38;;;;;;;23.16;100.00;101803.75;5054373;28;20123;-72
2023/05/30 08:02:20;;;;;;;9.25;4.10;;;;;;;22.70;100.00;101739.53;5054761;28;20071;-71
2023/05/30 08:04:46;;;;;;;9.88;4.28;;;;;;;23.01;100.00;101788.97;5055246;28;20033;-73
2023/05/30 08:07:11;;;;;;;6.38;4.45;;;;;;;22.79;100.00;101775.38;5072752;28;20037;-72
2023/05/30 08:09:37;;;;;;;6.13;4.50;;;;;;;22.84;100.00;101709.38;5072465;28;20032;-71
2023/05/30 08:12:05;;;;;;;8.45;5.00;;;;;;;23.40;100.00;101776.56;5054743;28;20056;-71
2023/05/30 08:14:31;;;;;;;5.85;4.70;;;;;;;23.11;100.00;101743.47;5073222;28;20024;-72
2023/05/30 08:16:57;;;;;;;5.35;4.82;;;;;;;22.95;100.00;101755.53;5072694;28;20427;-71
2023/05/30 08:19:22;;;;;;;7.78;4.82;;;;;;;22.84;100.00;101716.34;5072456;28;20028;-71
2023/05/30 08:21:48;;;;;;;7.43;4.68;;;;;;;22.66;100.00;101686.94;5072244;28;20020;-73
2023/05/30 08:24:17;;;;;;;8.68;4.55;;;;;;;22.97;100.00;101727.75;5072377;28;20033;-72
2023/05/30 08:26:42;;;;;;;6.07;4.95;;;;;;;22.98;100.00;101717.28;5072456;28;20025;-71
2023/05/30 08:29:08;;;;;;;6.18;5.10;;;;;;;23.38;100.00;101736.84;5072388;28;20067;-71
2023/05/30 08:31:34;;;;;;;7.30;4.95;;;;;;;22.95;100.00;101701.91;5072580;28;20032;-71
2023/05/30 08:34:02;;;;;;;5.78;4.68;;;;;;;23.19;100.00;101673.81;5054125;28;20064;-73
2023/05/30 08:36:28;;;;;;;9.57;5.43;;;;;;;23.38;100.00;101664.16;5054095;28;20119;-70
2023/05/30 08:38:55;;;;;;;7.55;6.05;;;;;;;23.41;100.00;101718.53;5071182;28;20028;-74
2023/05/30 08:41:22;;;;;;;7.45;5.70;;;;;;;23.15;100.00;101699.09;5054635;28;20025;-71
2023/05/30 08:43:48;;;;;;;10.75;6.15;;;;;;;23.57;100.00;101664.00;5072115;28;20025;-70
2023/05/30 08:46:23;;;;;;;8.38;5.18;;;;;;;23.47;100.00;101701.78;5054182;28;20025;-70
2023/05/30 08:48:48;;;;;;;5.30;4.75;;;;;;;23.52;100.00;101694.56;5071462;28;20111;-70
2023/05/30 08:51:15;;;;;;;9.25;5.30;;;;;;;23.48;100.00;101709.47;5071494;28;20034;-70
2023/05/30 08:53:45;;;;;;;7.10;4.72;;;;;;;23.40;100.00;101662.31;5071989;28;20052;-70
2023/05/30 08:56:14;;;;;;;6.80;5.00;;;;;;;23.14;100.00;101688.78;5054054;28;20060;-73
2023/05/30 08:58:43;;;;;;;7.88;5.32;;;;;;;23.17;100.00;101640.16;5072457;28;20025;-72
2023/05/30 09:01:10;;;;;;;5.97;5.35;;;;;;;23.82;100.00;101687.69;5071910;28;20028;-74
2023/05/30 09:03:42;;;;;;;7.68;5.35;;;;;;;23.36;100.00;101626.19;5053707;28;20037;-72
2023/05/30 09:06:08;;;;;;;5.75;4.88;;;;;;;23.40;100.00;101640.69;5072249;28;20032;-72
2023/05/30 09:08:34;;;;;;;5.53;4.70;;;;;;;23.90;100.00;101694.16;5072055;28;20111;-72
2023/05/30 09:11:02;;;;;;;6.55;5.65;;;;;;;23.57;100.00;101662.22;5054194;28;20029;-73
2023/05/30 09:13:28;;;;;;;6.88;5.15;;;;;;;23.84;100.00;101686.69;5072576;28;20032;-72
2023/05/30 09:15:53;;;;;;;7.75;5.18;;;;;;;23.64;100.00;101600.38;4723010;28;10000762;-74
2023/05/30 09:18:19;;;;;;;7.82;5.22;;;;;;;23.46;100.00;101607.44;5069316;28;20298;-70
2023/05/30 09:20:45;;;;;;;7.45;5.18;;;;;;;24.32;100.00;101632.84;5069961;28;20081;-71
2023/05/30 09:23:15;;;;;;;7.00;5.07;;;;;;;24.11;100.00;101657.50;5071017;28;20539;-71
2023/05/30 09:25:45;;;;;;;6.05;5.15;;;;;;;23.86;100.00;101585.25;5070680;28;20044;-71
2023/05/30 09:28:11;;;;;;;10.15;5.50;;;;;;;23.81;100.00;101540.53;5052904;28;20820;-71
2023/05/30 09:30:56;;;;;;;7.40;4.88;;;;;;;24.40;100.00;101570.81;5071003;28;20499;-72
2023/05/30 09:33:23;;;;;;;7.50;5.30;;;;;;;24.84;100.00;101558.56;5071019;28;20059;-72
2023/05/30 09:35:57;;;;;;;7.75;4.65;;;;;;;25.26;100.00;101549.81;5052319;28;20056;-72
2023/05/30 09:38:24;;;;;;;7.30;5.00;;;;;;;24.85;100.00;101550.69;5070011;28;20108;-72
2023/05/30 09:40:56;;;;;;;5.75;4.70;;;;;;;25.31;100.00;101467.03;5052428;28;20508;-73
2023/05/30 09:43:36;;;;;;;6.65;4.80;;;;;;;25.93;100.00;101523.66;5070568;28;20028;-73
2023/05/30 09:46:05;;;;;;;9.07;5.60;;;;;;;26.26;100.00;101484.06;5058935;28;20031;-71
2023/05/30 09:48:40;;;;;;;8.45;5.30;;;;;;;26.16;100.00;101418.69;5063872;28;20037;-72
2023/05/30 09:51:05;;;;;;;6.10;5.07;;;;;;;25.44;100.00;101397.59;5071740;28;20047;-71
2023/05/30 09:53:33;;;;;;;6.35;5.18;;;;;;;26.56;100.00;101416.69;5034146;28;20114;-69
2023/05/30 09:56:01;;;;;;;7.68;5.57;;;;;;;25.63;100.00;101346.72;5051145;28;20033;-71
2023/05/30 09:58:26;;;;;;;7.32;5.20;;;;;;;26.16;100.00;101366.50;5051373;28;20609;-70
2023/05/30 10:00:54;;;;;;;6.55;5.20;;;;;;;25.56;100.00;101284.72;5050964;28;20039;-70
2023/05/30 10:03:40;;;;;;;5.80;5.10;;;;;;;26.84;100.00;101408.56;5051269;28;20033;-69
2023/05/30 10:06:13;;;;;;;8.55;5.60;;;;;;;27.10;100.00;101300.38;5050815;28;20396;-74
2023/05/30 10:08:43;;;;;;;5.95;5.15;;;;;;;25.76;100.00;101284.16;5050734;28;20040;-70
2023/05/30 10:11:09;;;;;;;7.00;5.15;;;;;;;24.58;100.00;101208.13;5032723;28;20037;-70
2023/05/30 10:13:36;;;;;;;5.55;5.00;;;;;;;25.00;100.00;101225.25;5050758;28;20037;-69
2023/05/30 10:16:08;;;;;;;6.03;5.30;;;;;;;25.18;100.00;101210.97;5050884;28;20142;-71
2023/05/30 10:18:39;;;;;;;6.07;5.20;;;;;;;25.55;100.00;101093.69;5051007;28;20028;-70
2023/05/30 10:21:11;;;;;;;7.55;5.15;;;;;;;26.16;100.00;101103.09;5051446;28;20094;-70
2023/05/30 10:24:05;;;;;;;7.55;5.28;;;;;;;26.69;100.00;101062.47;5051072;28;20100;-76
2023/05/30 10:26:46;;;;;;;7.28;4.88;;;;;;;26.28;100.00;101008.28;5049498;28;20025;-69
2023/05/30 10:29:19;;;;;;;8.43;4.97;;;;;;;27.40;100.00;101043.78;5051097;28;20029;-69
2023/05/30 10:31:45;;;;;;;6.30;5.13;;;;;;;27.22;100.00;101009.47;5050924;28;20203;-70
2023/05/30 10:34:13;;;;;;;7.47;5.05;;;;;;;26.02;100.00;100952.03;5051018;28;20032;-70
2023/05/30 10:36:43;;;;;;;5.97;5.38;;;;;;;25.49;100.00;100961.25;5051054;28;20029;-76
2023/05/30 10:39:30;;;;;;;5.95;5.35;;;;;;;25.28;100.00;100995.84;5050755;28;20029;-79
2023/05/30 10:42:01;;;;;;;5.97;4.85;;;;;;;25.38;100.00;100997.66;5050826;28;20052;-70
2023/05/30 10:44:27;;;;;;;6.22;5.63;;;;;;;25.29;100.00;101021.78;5032368;28;20412;-71
2023/05/30 10:47:40;;;;;;;6.88;5.68;;;;;;;25.36;100.00;101020.41;5050907;28;20025;-70
2023/05/30 10:50:13;;;;;;;7.35;5.10;;;;;;;25.03;100.00;101001.16;4979282;28;20409;-70
2023/05/30 10:52:40;;;;;;;8.13;4.88;;;;;;;25.23;100.00;101056.09;5032930;28;20037;-81
2023/05/30 10:55:10;;;;;;;6.80;5.40;;;;;;;25.35;100.00;101046.56;5050518;28;20029;-70
2023/05/30 10:57:36;;;;;;;6.45;5.40;;;;;;;25.55;100.00;101090.28;5049573;28;20025;-70
2023/05/30 11:00:16;;;;;;;7.00;5.70;;;;;;;26.15;100.00;101051.03;5032964;28;20126;-70
2023/05/30 11:03:01;;;;;;;5.82;5.22;;;;;;;26.07;100.00;101042.97;5053274;28;20032;-71
2023/05/30 11:05:30;;;;;;;8.65;5.60;;;;;;;25.55;100.00;101002.50;5053944;28;20119;-70
2023/05/30 11:07:57;;;;;;;6.78;5.25;;;;;;;25.43;100.00;101072.91;5054359;28;20109;-70
2023/05/30 11:10:27;;;;;;;6.10;5.50;;;;;;;25.16;100.00;101060.06;5052830;28;20029;-77
2023/05/30 11:13:07;;;;;;;6.47;5.68;;;;;;;25.10;100.00;101077.91;5054474;28;20040;-71
2023/05/30 11:15:33;;;;;;;7.35;5.38;;;;;;;24.67;100.00;101085.22;5053988;28;20072;-71
2023/05/30 11:17:59;;;;;;;11.88;6.97;;;;;;;24.55;100.00;101086.88;5053623;28;20078;-71
2023/05/30 11:20:26;;;;;;;6.32;5.00;;;;;;;24.70;100.00;101148.25;5053782;28;20565;-70